sensor_id;sensor_type;location;lat;lon;timestamp;P1;durP1;ratioP1;P2;durP2;ratioP2
63016;SDS011;50274;45.640;11.756;2023-02-13T00:01:32;52.58;;;28.42;;
63016;SDS011;50274;45.640;11.756;2023-02-13T00:03:58;47.43;;;26.63;;
63016;SDS011;50274;45.640;11.756;2023-02-13T00:06:24;47.42;;;27.50;;
63016;SDS011;50274;45.640;11.756;2023-02-13T00:08:51;54.05;;;29.30;;
63016;SDS011;50274;45.640;11.756;2023-02-13T00:11:17;45.97;;;25.33;;
63016;SDS011;50274;45.640;11.756;2023-02-13T00:13:44;46.28;;;27.05;;
63016;SDS011;50274;45.640;11.756;2023-02-13T00:16:10;47.10;;;26.27;;
63016;SDS011;50274;45.640;11.756;2023-02-13T00:18:36;46.33;;;26.45;;
63016;SDS011;50274;45.640;11.756;2023-02-13T00:21:04;51.67;;;27.30;;
63016;SDS011;50274;45.640;11.756;2023-02-13T00:23:32;47.15;;;26.77;;
63016;SDS011;50274;45.640;11.756;2023-02-13T00:25:59;44.70;;;26.30;;
63016;SDS011;50274;45.640;11.756;2023-02-13T00:28:29;46.90;;;26.58;;
63016;SDS011;50274;45.640;11.756;2023-02-13T00:31:01;44.28;;;25.98;;
63016;SDS011;50274;45.640;11.756;2023-02-13T00:33:28;48.63;;;27.15;;
63016;SDS011;50274;45.640;11.756;2023-02-13T00:36:01;52.60;;;30.13;;
63016;SDS011;50274;45.640;11.756;2023-02-13T00:38:30;61.97;;;31.70;;
63016;SDS011;50274;45.640;11.756;2023-02-13T00:40:56;57.55;;;31.52;;
63016;SDS011;50274;45.640;11.756;2023-02-13T00:43:21;60.83;;;32.23;;
63016;SDS011;50274;45.640;11.756;2023-02-13T00:45:47;55.70;;;30.63;;
63016;SDS011;50274;45.640;11.756;2023-02-13T00:48:13;53.33;;;29.43;;
63016;SDS011;50274;45.640;11.756;2023-02-13T00:50:39;55.35;;;30.45;;
63016;SDS011;50274;45.640;11.756;2023-02-13T00:53:05;51.13;;;27.95;;
63016;SDS011;50274;45.640;11.756;2023-02-13T00:55:31;52.00;;;27.47;;
63016;SDS011;50274;45.640;11.756;2023-02-13T00:57:58;50.50;;;28.95;;
63016;SDS011;50274;45.640;11.756;2023-02-13T01:00:23;48.92;;;27.00;;
63016;SDS011;50274;45.640;11.756;2023-02-13T01:02:49;48.43;;;25.83;;
63016;SDS011;50274;45.640;11.756;2023-02-13T01:05:15;50.80;;;28.73;;
63016;SDS011;50274;45.640;11.756;2023-02-13T01:07:41;52.93;;;28.13;;
63016;SDS011;50274;45.640;11.756;2023-02-13T01:10:06;50.90;;;26.40;;
63016;SDS011;50274;45.640;11.756;2023-02-13T01:12:32;49.75;;;27.13;;
63016;SDS011;50274;45.640;11.756;2023-02-13T01:14:58;43.97;;;26.20;;
63016;SDS011;50274;45.640;11.756;2023-02-13T01:17:24;52.80;;;26.25;;
63016;SDS011;50274;45.640;11.756;2023-02-13T01:19:50;49.75;;;25.27;;
63016;SDS011;50274;45.640;11.756;2023-02-13T01:22:16;47.47;;;26.13;;
63016;SDS011;50274;45.640;11.756;2023-02-13T01:24:41;54.80;;;29.00;;
63016;SDS011;50274;45.640;11.756;2023-02-13T01:27:07;70.77;;;30.43;;
63016;SDS011;50274;45.640;11.756;2023-02-13T01:29:33;69.40;;;31.43;;
63016;SDS011;50274;45.640;11.756;2023-02-13T01:31:59;67.43;;;32.22;;
63016;SDS011;50274;45.640;11.756;2023-02-13T01:34:27;65.03;;;33.30;;
63016;SDS011;50274;45.640;11.756;2023-02-13T01:36:53;69.80;;;31.37;;
63016;SDS011;50274;45.640;11.756;2023-02-13T01:39:19;64.20;;;31.83;;
63016;SDS011;50274;45.640;11.756;2023-02-13T01:41:45;55.23;;;28.83;;
63016;SDS011;50274;45.640;11.756;2023-02-13T01:47:17;55.42;;;28.55;;
63016;SDS011;50274;45.640;11.756;2023-02-13T01:50:01;51.90;;;27.10;;
63016;SDS011;50274;45.640;11.756;2023-02-13T01:52:38;42.55;;;23.88;;
63016;SDS011;50274;45.640;11.756;2023-02-13T01:55:08;44.97;;;25.13;;
63016;SDS011;50274;45.640;11.756;2023-02-13T01:57:35;43.72;;;22.88;;
63016;SDS011;50274;45.640;11.756;2023-02-13T02:00:07;45.25;;;24.25;;
63016;SDS011;50274;45.640;11.756;2023-02-13T02:02:36;44.03;;;24.60;;
63016;SDS011;50274;45.640;11.756;2023-02-13T02:05:06;43.22;;;24.00;;
63016;SDS011;50274;45.640;11.756;2023-02-13T02:07:33;42.75;;;24.25;;
63016;SDS011;50274;45.640;11.756;2023-02-13T02:10:04;39.60;;;22.08;;
63016;SDS011;50274;45.640;11.756;2023-02-13T02:15:09;39.90;;;22.70;;
63016;SDS011;50274;45.640;11.756;2023-02-13T02:17:36;41.40;;;21.83;;
63016;SDS011;50274;45.640;11.756;2023-02-13T02:26:03;33.67;;;19.60;;
63016;SDS011;50274;45.640;11.756;2023-02-13T02:34:59;38.30;;;20.70;;
63016;SDS011;50274;45.640;11.756;2023-02-13T02:38:00;40.97;;;20.38;;
63016;SDS011;50274;45.640;11.756;2023-02-13T02:40:43;35.27;;;19.23;;
63016;SDS011;50274;45.640;11.756;2023-02-13T02:57:35;27.77;;;15.18;;
63016;SDS011;50274;45.640;11.756;2023-02-13T03:00:25;26.65;;;15.68;;
63016;SDS011;50274;45.640;11.756;2023-02-13T03:03:19;31.60;;;16.88;;
63016;SDS011;50274;45.640;11.756;2023-02-13T03:06:11;27.05;;;15.15;;
63016;SDS011;50274;45.640;11.756;2023-02-13T03:09:01;25.90;;;14.20;;
63016;SDS011;50274;45.640;11.756;2023-02-13T03:11:50;26.33;;;14.55;;
63016;SDS011;50274;45.640;11.756;2023-02-13T03:14:37;25.67;;;14.43;;
63016;SDS011;50274;45.640;11.756;2023-02-13T03:17:03;25.08;;;13.85;;
63016;SDS011;50274;45.640;11.756;2023-02-13T03:20:03;26.45;;;14.00;;
63016;SDS011;50274;45.640;11.756;2023-02-13T03:23:29;30.40;;;16.47;;
63016;SDS011;50274;45.640;11.756;2023-02-13T03:31:37;23.95;;;13.02;;
63016;SDS011;50274;45.640;11.756;2023-02-13T03:34:17;23.77;;;13.10;;
63016;SDS011;50274;45.640;11.756;2023-02-13T03:44:55;28.90;;;12.93;;
63016;SDS011;50274;45.640;11.756;2023-02-13T03:47:44;22.50;;;11.80;;
63016;SDS011;50274;45.640;11.756;2023-02-13T03:50:13;24.10;;;11.67;;
63016;SDS011;50274;45.640;11.756;2023-02-13T03:52:42;20.15;;;10.93;;
63016;SDS011;50274;45.640;11.756;2023-02-13T03:55:16;27.23;;;13.43;;
63016;SDS011;50274;45.640;11.756;2023-02-13T03:58:07;25.50;;;12.90;;
63016;SDS011;50274;45.640;11.756;2023-02-13T04:00:57;23.88;;;11.77;;
63016;SDS011;50274;45.640;11.756;2023-02-13T04:03:39;23.00;;;11.60;;
63016;SDS011;50274;45.640;11.756;2023-02-13T04:06:10;23.77;;;11.52;;
63016;SDS011;50274;45.640;11.756;2023-02-13T04:08:39;21.75;;;10.98;;
63016;SDS011;50274;45.640;11.756;2023-02-13T04:11:09;21.85;;;11.77;;
63016;SDS011;50274;45.640;11.756;2023-02-13T04:13:42;24.80;;;12.32;;
63016;SDS011;50274;45.640;11.756;2023-02-13T04:16:20;22.30;;;11.87;;
63016;SDS011;50274;45.640;11.756;2023-02-13T04:18:51;25.75;;;13.82;;
63016;SDS011;50274;45.640;11.756;2023-02-13T04:21:18;21.48;;;12.30;;
63016;SDS011;50274;45.640;11.756;2023-02-13T04:23:44;22.33;;;12.70;;
63016;SDS011;50274;45.640;11.756;2023-02-13T04:26:12;21.33;;;12.07;;
63016;SDS011;50274;45.640;11.756;2023-02-13T04:28:45;24.15;;;12.52;;
63016;SDS011;50274;45.640;11.756;2023-02-13T04:31:11;29.33;;;13.55;;
63016;SDS011;50274;45.640;11.756;2023-02-13T04:33:37;23.40;;;13.10;;
63016;SDS011;50274;45.640;11.756;2023-02-13T04:36:03;26.45;;;13.65;;
63016;SDS011;50274;45.640;11.756;2023-02-13T04:38:29;22.60;;;11.70;;
63016;SDS011;50274;45.640;11.756;2023-02-13T04:40:54;24.37;;;12.20;;
63016;SDS011;50274;45.640;11.756;2023-02-13T04:43:20;22.45;;;11.82;;
63016;SDS011;50274;45.640;11.756;2023-02-13T04:45:47;22.30;;;11.82;;
63016;SDS011;50274;45.640;11.756;2023-02-13T04:48:13;26.97;;;11.57;;
63016;SDS011;50274;45.640;11.756;2023-02-13T04:50:39;21.10;;;11.10;;
63016;SDS011;50274;45.640;11.756;2023-02-13T04:53:05;25.88;;;12.88;;
63016;SDS011;50274;45.640;11.756;2023-02-13T04:55:31;22.30;;;11.67;;
63016;SDS011;50274;45.640;11.756;2023-02-13T04:57:57;20.97;;;11.70;;
63016;SDS011;50274;45.640;11.756;2023-02-13T05:00:24;26.77;;;12.15;;
63016;SDS011;50274;45.640;11.756;2023-02-13T05:02:51;25.15;;;12.55;;
63016;SDS011;50274;45.640;11.756;2023-02-13T05:05:18;25.75;;;13.27;;
63016;SDS011;50274;45.640;11.756;2023-02-13T05:07:44;22.23;;;11.97;;
63016;SDS011;50274;45.640;11.756;2023-02-13T05:10:10;25.42;;;12.25;;
63016;SDS011;50274;45.640;11.756;2023-02-13T05:12:37;21.85;;;11.82;;
63016;SDS011;50274;45.640;11.756;2023-02-13T05:15:03;23.25;;;11.55;;
63016;SDS011;50274;45.640;11.756;2023-02-13T05:17:30;20.80;;;11.50;;
63016;SDS011;50274;45.640;11.756;2023-02-13T05:19:56;22.48;;;12.25;;
63016;SDS011;50274;45.640;11.756;2023-02-13T05:22:23;24.23;;;13.27;;
63016;SDS011;50274;45.640;11.756;2023-02-13T05:25:08;21.10;;;11.43;;
63016;SDS011;50274;45.640;11.756;2023-02-13T05:27:33;27.60;;;13.07;;
63016;SDS011;50274;45.640;11.756;2023-02-13T05:29:59;38.93;;;14.73;;
63016;SDS011;50274;45.640;11.756;2023-02-13T05:32:25;40.75;;;16.30;;
63016;SDS011;50274;45.640;11.756;2023-02-13T05:34:51;44.38;;;17.27;;
63016;SDS011;50274;45.640;11.756;2023-02-13T05:37:17;49.57;;;17.33;;
63016;SDS011;50274;45.640;11.756;2023-02-13T05:39:43;45.65;;;16.98;;
63016;SDS011;50274;45.640;11.756;2023-02-13T05:42:08;50.87;;;17.10;;
63016;SDS011;50274;45.640;11.756;2023-02-13T05:44:35;47.53;;;15.65;;
63016;SDS011;50274;45.640;11.756;2023-02-13T05:47:00;45.30;;;14.63;;
63016;SDS011;50274;45.640;11.756;2023-02-13T05:49:26;33.90;;;13.43;;
63016;SDS011;50274;45.640;11.756;2023-02-13T05:51:52;28.55;;;12.85;;
63016;SDS011;50274;45.640;11.756;2023-02-13T05:54:18;25.60;;;11.30;;
63016;SDS011;50274;45.640;11.756;2023-02-13T05:56:44;22.85;;;10.98;;
63016;SDS011;50274;45.640;11.756;2023-02-13T05:59:10;27.42;;;10.75;;
63016;SDS011;50274;45.640;11.756;2023-02-13T06:01:36;22.80;;;9.70;;
63016;SDS011;50274;45.640;11.756;2023-02-13T06:04:02;22.03;;;10.73;;
63016;SDS011;50274;45.640;11.756;2023-02-13T06:06:28;18.92;;;9.65;;
63016;SDS011;50274;45.640;11.756;2023-02-13T06:08:54;19.48;;;8.73;;
63016;SDS011;50274;45.640;11.756;2023-02-13T06:11:19;19.30;;;9.30;;
63016;SDS011;50274;45.640;11.756;2023-02-13T06:13:45;19.38;;;8.98;;
63016;SDS011;50274;45.640;11.756;2023-02-13T06:16:11;18.00;;;9.65;;
63016;SDS011;50274;45.640;11.756;2023-02-13T06:18:37;18.30;;;8.93;;
63016;SDS011;50274;45.640;11.756;2023-02-13T06:21:03;24.20;;;11.45;;
63016;SDS011;50274;45.640;11.756;2023-02-13T06:23:30;21.55;;;11.90;;
63016;SDS011;50274;45.640;11.756;2023-02-13T06:26:00;23.73;;;11.10;;
63016;SDS011;50274;45.640;11.756;2023-02-13T06:28:26;24.98;;;11.35;;
63016;SDS011;50274;45.640;11.756;2023-02-13T06:30:52;23.50;;;10.17;;
63016;SDS011;50274;45.640;11.756;2023-02-13T06:33:18;27.80;;;11.13;;
63016;SDS011;50274;45.640;11.756;2023-02-13T06:35:44;24.97;;;11.00;;
63016;SDS011;50274;45.640;11.756;2023-02-13T06:38:09;24.65;;;10.38;;
63016;SDS011;50274;45.640;11.756;2023-02-13T06:40:35;25.00;;;10.87;;
63016;SDS011;50274;45.640;11.756;2023-02-13T06:43:01;26.05;;;11.32;;
63016;SDS011;50274;45.640;11.756;2023-02-13T06:45:27;23.60;;;11.38;;
63016;SDS011;50274;45.640;11.756;2023-02-13T06:47:53;28.73;;;14.83;;
63016;SDS011;50274;45.640;11.756;2023-02-13T06:50:19;23.67;;;11.98;;
63016;SDS011;50274;45.640;11.756;2023-02-13T06:52:45;30.05;;;15.15;;
63016;SDS011;50274;45.640;11.756;2023-02-13T06:55:12;35.03;;;16.90;;
63016;SDS011;50274;45.640;11.756;2023-02-13T06:57:38;30.40;;;13.18;;
63016;SDS011;50274;45.640;11.756;2023-02-13T07:00:04;28.20;;;14.10;;
63016;SDS011;50274;45.640;11.756;2023-02-13T07:02:31;24.05;;;12.75;;
63016;SDS011;50274;45.640;11.756;2023-02-13T07:05:00;23.63;;;11.52;;
63016;SDS011;50274;45.640;11.756;2023-02-13T07:07:31;23.93;;;12.63;;
63016;SDS011;50274;45.640;11.756;2023-02-13T07:09:58;30.17;;;13.95;;
63016;SDS011;50274;45.640;11.756;2023-02-13T07:12:24;31.08;;;16.02;;
63016;SDS011;50274;45.640;11.756;2023-02-13T07:14:49;23.23;;;12.00;;
63016;SDS011;50274;45.640;11.756;2023-02-13T07:17:15;24.37;;;13.53;;
63016;SDS011;50274;45.640;11.756;2023-02-13T07:19:41;30.08;;;12.95;;
63016;SDS011;50274;45.640;11.756;2023-02-13T07:22:07;19.50;;;11.00;;
63016;SDS011;50274;45.640;11.756;2023-02-13T07:24:33;22.85;;;11.50;;
63016;SDS011;50274;45.640;11.756;2023-02-13T07:26:59;19.05;;;9.07;;
63016;SDS011;50274;45.640;11.756;2023-02-13T07:29:26;24.48;;;10.98;;
63016;SDS011;50274;45.640;11.756;2023-02-13T07:31:51;21.33;;;11.33;;
63016;SDS011;50274;45.640;11.756;2023-02-13T07:34:17;21.05;;;10.38;;
63016;SDS011;50274;45.640;11.756;2023-02-13T07:36:43;23.23;;;11.00;;
63016;SDS011;50274;45.640;11.756;2023-02-13T07:39:09;25.23;;;11.73;;
63016;SDS011;50274;45.640;11.756;2023-02-13T07:41:34;38.30;;;14.48;;
63016;SDS011;50274;45.640;11.756;2023-02-13T07:44:00;23.83;;;12.93;;
63016;SDS011;50274;45.640;11.756;2023-02-13T07:46:26;32.00;;;15.73;;
63016;SDS011;50274;45.640;11.756;2023-02-13T07:48:52;26.43;;;14.17;;
63016;SDS011;50274;45.640;11.756;2023-02-13T07:51:18;31.33;;;16.00;;
63016;SDS011;50274;45.640;11.756;2023-02-13T07:53:44;34.53;;;16.10;;
63016;SDS011;50274;45.640;11.756;2023-02-13T07:56:10;29.65;;;16.17;;
63016;SDS011;50274;45.640;11.756;2023-02-13T07:58:36;29.83;;;14.30;;
63016;SDS011;50274;45.640;11.756;2023-02-13T08:01:08;29.08;;;15.63;;
63016;SDS011;50274;45.640;11.756;2023-02-13T08:03:36;26.98;;;13.88;;
63016;SDS011;50274;45.640;11.756;2023-02-13T08:06:02;29.48;;;16.48;;
63016;SDS011;50274;45.640;11.756;2023-02-13T08:08:28;30.63;;;17.85;;
63016;SDS011;50274;45.640;11.756;2023-02-13T08:10:54;27.17;;;15.97;;
63016;SDS011;50274;45.640;11.756;2023-02-13T08:13:40;27.13;;;15.80;;
63016;SDS011;50274;45.640;11.756;2023-02-13T08:16:07;23.98;;;13.93;;
63016;SDS011;50274;45.640;11.756;2023-02-13T08:18:33;25.95;;;15.18;;
63016;SDS011;50274;45.640;11.756;2023-02-13T08:21:02;25.70;;;14.30;;
63016;SDS011;50274;45.640;11.756;2023-02-13T08:23:28;24.20;;;12.80;;
63016;SDS011;50274;45.640;11.756;2023-02-13T08:25:54;22.75;;;13.88;;
63016;SDS011;50274;45.640;11.756;2023-02-13T08:28:22;25.87;;;13.80;;
63016;SDS011;50274;45.640;11.756;2023-02-13T08:30:48;23.27;;;13.50;;
63016;SDS011;50274;45.640;11.756;2023-02-13T08:33:14;27.40;;;14.73;;
63016;SDS011;50274;45.640;11.756;2023-02-13T08:35:40;26.83;;;13.48;;
63016;SDS011;50274;45.640;11.756;2023-02-13T08:38:05;27.13;;;13.53;;
63016;SDS011;50274;45.640;11.756;2023-02-13T08:40:31;25.58;;;13.15;;
63016;SDS011;50274;45.640;11.756;2023-02-13T08:43:04;22.52;;;12.38;;
63016;SDS011;50274;45.640;11.756;2023-02-13T08:45:31;21.40;;;11.57;;
63016;SDS011;50274;45.640;11.756;2023-02-13T08:47:58;24.77;;;13.00;;
63016;SDS011;50274;45.640;11.756;2023-02-13T08:50:24;27.00;;;11.43;;
63016;SDS011;50274;45.640;11.756;2023-02-13T08:52:51;24.45;;;11.70;;
63016;SDS011;50274;45.640;11.756;2023-02-13T08:55:18;19.05;;;10.90;;
63016;SDS011;50274;45.640;11.756;2023-02-13T08:57:44;23.67;;;11.60;;
63016;SDS011;50274;45.640;11.756;2023-02-13T09:00:10;23.10;;;11.30;;
63016;SDS011;50274;45.640;11.756;2023-02-13T09:02:36;20.42;;;10.80;;
63016;SDS011;50274;45.640;11.756;2023-02-13T09:05:02;23.40;;;9.73;;
63016;SDS011;50274;45.640;11.756;2023-02-13T09:07:28;23.33;;;10.43;;
63016;SDS011;50274;45.640;11.756;2023-02-13T09:09:54;17.98;;;9.40;;
63016;SDS011;50274;45.640;11.756;2023-02-13T09:12:19;21.83;;;9.80;;
63016;SDS011;50274;45.640;11.756;2023-02-13T09:14:51;21.45;;;9.80;;
63016;SDS011;50274;45.640;11.756;2023-02-13T09:17:17;18.80;;;9.98;;
63016;SDS011;50274;45.640;11.756;2023-02-13T09:19:43;16.30;;;9.15;;
63016;SDS011;50274;45.640;11.756;2023-02-13T09:22:11;19.93;;;10.20;;
63016;SDS011;50274;45.640;11.756;2023-02-13T09:24:36;19.60;;;8.95;;
63016;SDS011;50274;45.640;11.756;2023-02-13T09:27:05;19.63;;;8.80;;
63016;SDS011;50274;45.640;11.756;2023-02-13T09:29:32;16.55;;;9.43;;
63016;SDS011;50274;45.640;11.756;2023-02-13T09:31:58;16.80;;;8.87;;
63016;SDS011;50274;45.640;11.756;2023-02-13T09:34:25;18.60;;;9.02;;
63016;SDS011;50274;45.640;11.756;2023-02-13T09:36:51;16.80;;;7.95;;
63016;SDS011;50274;45.640;11.756;2023-02-13T09:39:18;15.75;;;7.13;;
63016;SDS011;50274;45.640;11.756;2023-02-13T09:41:44;14.10;;;6.90;;
63016;SDS011;50274;45.640;11.756;2023-02-13T09:44:18;14.60;;;7.82;;
63016;SDS011;50274;45.640;11.756;2023-02-13T09:49:36;12.30;;;6.03;;
63016;SDS011;50274;45.640;11.756;2023-02-13T09:52:06;12.27;;;5.27;;
63016;SDS011;50274;45.640;11.756;2023-02-13T09:54:33;11.57;;;5.47;;
63016;SDS011;50274;45.640;11.756;2023-02-13T09:57:00;11.30;;;5.72;;
63016;SDS011;50274;45.640;11.756;2023-02-13T10:02:22;10.75;;;4.90;;
63016;SDS011;50274;45.640;11.756;2023-02-13T10:08:24;10.57;;;5.90;;
63016;SDS011;50274;45.640;11.756;2023-02-13T10:14:09;10.13;;;5.32;;
63016;SDS011;50274;45.640;11.756;2023-02-13T10:16:58;12.75;;;5.78;;
63016;SDS011;50274;45.640;11.756;2023-02-13T10:22:03;10.63;;;5.00;;
63016;SDS011;50274;45.640;11.756;2023-02-13T10:25:11;13.25;;;5.65;;
63016;SDS011;50274;45.640;11.756;2023-02-13T10:27:31;9.77;;;5.25;;
63016;SDS011;50274;45.640;11.756;2023-02-13T10:30:07;11.07;;;5.15;;
63016;SDS011;50274;45.640;11.756;2023-02-13T10:35:48;13.00;;;6.10;;
63016;SDS011;50274;45.640;11.756;2023-02-13T10:38:16;12.73;;;7.03;;
63016;SDS011;50274;45.640;11.756;2023-02-13T10:44:06;13.82;;;6.53;;
63016;SDS011;50274;45.640;11.756;2023-02-13T10:57:24;10.05;;;4.80;;
63016;SDS011;50274;45.640;11.756;2023-02-13T11:02:43;10.13;;;4.75;;
63016;SDS011;50274;45.640;11.756;2023-02-13T11:07:43;9.77;;;4.95;;
63016;SDS011;50274;45.640;11.756;2023-02-13T11:10:20;8.25;;;4.80;;
63016;SDS011;50274;45.640;11.756;2023-02-13T11:12:48;9.87;;;4.60;;
63016;SDS011;50274;45.640;11.756;2023-02-13T11:15:27;10.15;;;5.20;;
63016;SDS011;50274;45.640;11.756;2023-02-13T11:17:55;11.20;;;6.18;;
63016;SDS011;50274;45.640;11.756;2023-02-13T11:20:29;11.73;;;5.90;;
63016;SDS011;50274;45.640;11.756;2023-02-13T11:26:08;9.27;;;5.13;;
63016;SDS011;50274;45.640;11.756;2023-02-13T11:28:53;11.05;;;6.47;;
63016;SDS011;50274;45.640;11.756;2023-02-13T11:31:43;9.70;;;5.63;;
63016;SDS011;50274;45.640;11.756;2023-02-13T11:36:50;9.68;;;5.22;;
63016;SDS011;50274;45.640;11.756;2023-02-13T11:39:19;8.77;;;4.80;;
63016;SDS011;50274;45.640;11.756;2023-02-13T11:41:47;8.43;;;4.93;;
63016;SDS011;50274;45.640;11.756;2023-02-13T11:44:24;8.95;;;5.22;;
63016;SDS011;50274;45.640;11.756;2023-02-13T11:46:53;10.15;;;5.35;;
63016;SDS011;50274;45.640;11.756;2023-02-13T11:49:25;10.32;;;5.45;;
63016;SDS011;50274;45.640;11.756;2023-02-13T11:51:57;8.90;;;4.63;;
63016;SDS011;50274;45.640;11.756;2023-02-13T11:57:43;11.38;;;5.30;;
63016;SDS011;50274;45.640;11.756;2023-02-13T11:59:48;8.38;;;5.03;;
63016;SDS011;50274;45.640;11.756;2023-02-13T12:04:48;9.30;;;5.00;;
63016;SDS011;50274;45.640;11.756;2023-02-13T12:07:34;9.90;;;5.15;;
63016;SDS011;50274;45.640;11.756;2023-02-13T12:10:02;9.52;;;5.05;;
63016;SDS011;50274;45.640;11.756;2023-02-13T12:12:53;9.38;;;5.03;;
63016;SDS011;50274;45.640;11.756;2023-02-13T12:15:22;9.68;;;4.97;;
63016;SDS011;50274;45.640;11.756;2023-02-13T12:18:01;9.97;;;5.93;;
63016;SDS011;50274;45.640;11.756;2023-02-13T12:20:56;10.23;;;5.88;;
63016;SDS011;50274;45.640;11.756;2023-02-13T12:46:21;12.40;;;6.50;;
63016;SDS011;50274;45.640;11.756;2023-02-13T12:51:55;9.68;;;5.90;;
63016;SDS011;50274;45.640;11.756;2023-02-13T12:57:14;10.60;;;6.20;;
63016;SDS011;50274;45.640;11.756;2023-02-13T13:02:43;10.52;;;5.72;;
63016;SDS011;50274;45.640;11.756;2023-02-13T13:05:31;13.60;;;7.18;;
63016;SDS011;50274;45.640;11.756;2023-02-13T13:11:04;10.30;;;6.57;;
63016;SDS011;50274;45.640;11.756;2023-02-13T13:13:47;11.67;;;6.27;;
63016;SDS011;50274;45.640;11.756;2023-02-13T13:19:02;11.98;;;6.55;;
63016;SDS011;50274;45.640;11.756;2023-02-13T13:21:38;12.10;;;7.00;;
63016;SDS011;50274;45.640;11.756;2023-02-13T13:27:22;10.50;;;6.60;;
63016;SDS011;50274;45.640;11.756;2023-02-13T13:29:56;11.85;;;7.13;;
63016;SDS011;50274;45.640;11.756;2023-02-13T13:32:25;12.48;;;7.57;;
63016;SDS011;50274;45.640;11.756;2023-02-13T13:34:52;10.93;;;6.90;;
63016;SDS011;50274;45.640;11.756;2023-02-13T13:45:56;12.38;;;7.28;;
63016;SDS011;50274;45.640;11.756;2023-02-13T13:51:23;14.45;;;7.32;;
63016;SDS011;50274;45.640;11.756;2023-02-13T13:56:24;11.95;;;6.65;;
63016;SDS011;50274;45.640;11.756;2023-02-13T13:58:50;14.55;;;8.13;;
63016;SDS011;50274;45.640;11.756;2023-02-13T14:01:17;10.30;;;6.47;;
63016;SDS011;50274;45.640;11.756;2023-02-13T14:14:57;11.65;;;7.57;;
63016;SDS011;50274;45.640;11.756;2023-02-13T14:17:00;14.07;;;7.90;;
63016;SDS011;50274;45.640;11.756;2023-02-13T14:25:02;12.65;;;7.57;;
63016;SDS011;50274;45.640;11.756;2023-02-13T14:27:50;16.17;;;9.43;;
63016;SDS011;50274;45.640;11.756;2023-02-13T14:30:45;17.63;;;9.80;;
63016;SDS011;50274;45.640;11.756;2023-02-13T14:33:24;15.40;;;8.52;;
63016;SDS011;50274;45.640;11.756;2023-02-13T14:36:03;13.30;;;8.75;;
63016;SDS011;50274;45.640;11.756;2023-02-13T14:38:32;14.93;;;7.97;;
63016;SDS011;50274;45.640;11.756;2023-02-13T14:40:59;13.63;;;9.13;;
63016;SDS011;50274;45.640;11.756;2023-02-13T14:43:29;16.00;;;9.03;;
63016;SDS011;50274;45.640;11.756;2023-02-13T14:51:50;16.98;;;10.48;;
63016;SDS011;50274;45.640;11.756;2023-02-13T14:54:24;13.55;;;8.63;;
63016;SDS011;50274;45.640;11.756;2023-02-13T14:57:03;18.13;;;11.07;;
63016;SDS011;50274;45.640;11.756;2023-02-13T15:00:08;19.75;;;11.63;;
63016;SDS011;50274;45.640;11.756;2023-02-13T15:02:53;18.35;;;10.35;;
63016;SDS011;50274;45.640;11.756;2023-02-13T15:07:58;15.05;;;9.75;;
63016;SDS011;50274;45.640;11.756;2023-02-13T15:10:48;15.90;;;9.57;;
63016;SDS011;50274;45.640;11.756;2023-02-13T15:16:11;16.90;;;9.40;;
63016;SDS011;50274;45.640;11.756;2023-02-13T15:21:04;15.87;;;9.77;;
63016;SDS011;50274;45.640;11.756;2023-02-13T15:23:31;19.10;;;10.90;;
63016;SDS011;50274;45.640;11.756;2023-02-13T15:26:02;18.38;;;10.55;;
63016;SDS011;50274;45.640;11.756;2023-02-13T15:28:30;16.85;;;10.27;;
63016;SDS011;50274;45.640;11.756;2023-02-13T15:33:47;20.30;;;11.07;;
63016;SDS011;50274;45.640;11.756;2023-02-13T15:36:18;20.15;;;12.05;;
63016;SDS011;50274;45.640;11.756;2023-02-13T15:38:46;18.75;;;11.02;;
63016;SDS011;50274;45.640;11.756;2023-02-13T15:41:16;17.33;;;10.90;;
63016;SDS011;50274;45.640;11.756;2023-02-13T15:43:55;18.90;;;10.80;;
63016;SDS011;50274;45.640;11.756;2023-02-13T15:46:32;19.20;;;10.35;;
63016;SDS011;50274;45.640;11.756;2023-02-13T15:49:03;17.85;;;10.82;;
63016;SDS011;50274;45.640;11.756;2023-02-13T15:51:30;15.38;;;9.45;;
63016;SDS011;50274;45.640;11.756;2023-02-13T15:54:22;17.15;;;10.55;;
63016;SDS011;50274;45.640;11.756;2023-02-13T15:56:49;18.87;;;10.37;;
63016;SDS011;50274;45.640;11.756;2023-02-13T15:59:17;18.23;;;10.68;;
63016;SDS011;50274;45.640;11.756;2023-02-13T16:01:45;16.27;;;10.73;;
63016;SDS011;50274;45.640;11.756;2023-02-13T16:04:12;18.90;;;11.65;;
63016;SDS011;50274;45.640;11.756;2023-02-13T16:06:41;18.77;;;11.32;;
63016;SDS011;50274;45.640;11.756;2023-02-13T16:09:21;20.00;;;12.40;;
63016;SDS011;50274;45.640;11.756;2023-02-13T16:14:30;20.15;;;11.30;;
63016;SDS011;50274;45.640;11.756;2023-02-13T16:17:02;21.85;;;11.00;;
63016;SDS011;50274;45.640;11.756;2023-02-13T16:24:53;21.02;;;12.48;;
63016;SDS011;50274;45.640;11.756;2023-02-13T16:27:26;31.92;;;16.83;;
63016;SDS011;50274;45.640;11.756;2023-02-13T16:29:53;28.40;;;16.73;;
63016;SDS011;50274;45.640;11.756;2023-02-13T16:32:30;28.15;;;15.70;;
63016;SDS011;50274;45.640;11.756;2023-02-13T16:35:14;25.13;;;15.00;;
63016;SDS011;50274;45.640;11.756;2023-02-13T16:37:55;24.60;;;14.95;;
63016;SDS011;50274;45.640;11.756;2023-02-13T16:40:34;23.77;;;13.80;;
63016;SDS011;50274;45.640;11.756;2023-02-13T16:56:41;17.58;;;11.07;;
63016;SDS011;50274;45.640;11.756;2023-02-13T17:04:32;24.10;;;11.63;;
63016;SDS011;50274;45.640;11.756;2023-02-13T17:06:59;21.45;;;12.70;;
63016;SDS011;50274;45.640;11.756;2023-02-13T17:09:24;20.05;;;11.63;;
63016;SDS011;50274;45.640;11.756;2023-02-13T17:11:51;19.33;;;12.70;;
63016;SDS011;50274;45.640;11.756;2023-02-13T17:14:18;21.55;;;12.82;;
63016;SDS011;50274;45.640;11.756;2023-02-13T17:16:45;21.17;;;13.25;;
63016;SDS011;50274;45.640;11.756;2023-02-13T17:19:12;26.35;;;14.43;;
63016;SDS011;50274;45.640;11.756;2023-02-13T17:21:41;22.47;;;13.60;;
63016;SDS011;50274;45.640;11.756;2023-02-13T17:24:08;23.50;;;13.98;;
63016;SDS011;50274;45.640;11.756;2023-02-13T17:26:41;22.15;;;14.25;;
63016;SDS011;50274;45.640;11.756;2023-02-13T17:29:07;25.03;;;15.57;;
63016;SDS011;50274;45.640;11.756;2023-02-13T17:31:32;24.40;;;14.20;;
63016;SDS011;50274;45.640;11.756;2023-02-13T17:33:58;23.80;;;14.60;;
63016;SDS011;50274;45.640;11.756;2023-02-13T17:36:24;23.27;;;14.27;;
63016;SDS011;50274;45.640;11.756;2023-02-13T17:38:50;24.70;;;14.05;;
63016;SDS011;50274;45.640;11.756;2023-02-13T17:41:16;22.58;;;14.48;;
63016;SDS011;50274;45.640;11.756;2023-02-13T17:43:42;24.58;;;14.13;;
63016;SDS011;50274;45.640;11.756;2023-02-13T17:46:08;26.33;;;15.57;;
63016;SDS011;50274;45.640;11.756;2023-02-13T17:48:34;23.15;;;14.27;;
63016;SDS011;50274;45.640;11.756;2023-02-13T17:50:59;23.67;;;15.00;;
63016;SDS011;50274;45.640;11.756;2023-02-13T17:53:28;25.08;;;15.38;;
63016;SDS011;50274;45.640;11.756;2023-02-13T17:55:55;23.70;;;13.93;;
63016;SDS011;50274;45.640;11.756;2023-02-13T17:58:21;24.95;;;14.18;;
63016;SDS011;50274;45.640;11.756;2023-02-13T18:00:47;26.90;;;14.07;;